Time;durP1;ratioP1;P1;durP2;ratioP2;P2;SDS_P1;SDS_P2;PMS_P1;PMS_P2;Temp;Humidity;BMP_temperature;BMP_pressure;BME280_temperature;BME280_humidity;BME280_pressure;Samples;Min_cycle;Max_cycle;Signal;HPM_P1;HPM_P2
2022/08/23 00:00:59;;;;;;;;;;;23.50;54.20;;;;;;5093251;28;19916;-69
2022/08/23 00:03:24;;;;;;;;;;;23.40;54.40;;;;;;5093367;28;19908;-71
2022/08/23 00:05:50;;;;;;;;;;;23.40;54.50;;;;;;5093522;28;20014;-72
2022/08/23 00:08:16;;;;;;;;;;;23.40;54.30;;;;;;5093307;28;19995;-68
2022/08/23 00:10:41;;;;;;;;;;;23.30;54.60;;;;;;5093297;28;19908;-64
2022/08/23 00:13:07;;;;;;;;;;;23.40;54.20;;;;;;5093744;28;19908;-67
2022/08/23 00:15:32;;;;;;;;;;;23.40;54.50;;;;;;5093309;28;20385;-67
2022/08/23 00:17:59;;;;;;;;;;;23.40;54.20;;;;;;5093033;28;19965;-70
2022/08/23 00:20:25;;;;;;;;;;;23.40;54.40;;;;;;5093323;28;20021;-70
2022/08/23 00:22:50;;;;;;;;;;;23.40;54.30;;;;;;5093326;28;19962;-72
2022/08/23 00:25:16;;;;;;;;;;;23.40;54.40;;;;;;5093201;28;19913;-66
2022/08/23 00:27:42;;;;;;;;;;;23.40;54.60;;;;;;5093421;28;20248;-68
2022/08/23 00:30:11;;;;;;;;;;;23.30;54.40;;;;;;5093182;28;19909;-70
2022/08/23 00:32:37;;;;;;;;;;;23.40;54.40;;;;;;5093311;28;20264;-67
2022/08/23 00:35:03;;;;;;;;;;;23.40;54.50;;;;;;5096821;28;19985;-70
2022/08/23 00:37:31;;;;;;;;;;;23.20;54.80;;;;;;5097195;28;19931;-69
2022/08/23 00:39:56;;;;;;;;;;;23.20;55.20;;;;;;5096610;28;20286;-67
2022/08/23 00:48:13;;;;;;;;;;;23.10;55.30;;;;;;5096897;28;20333;-70
2022/08/23 00:50:47;;;;;;;;;;;23.10;55.70;;;;;;5096752;28;19951;-71
2022/08/23 00:53:13;;;;;;;;;;;23.00;56.10;;;;;;5096622;28;19915;-70
2022/08/23 00:55:41;;;;;;;;;;;23.00;56.00;;;;;;5096626;28;20309;-70
2022/08/23 00:58:07;;;;;;;;;;;23.00;56.10;;;;;;5096498;28;19909;-66
2022/08/23 01:00:33;;;;;;;;;;;23.00;56.10;;;;;;5096350;28;19969;-72
2022/08/23 01:03:00;;;;;;;;;;;22.90;56.20;;;;;;5096327;28;19908;-73
2022/08/23 01:05:30;;;;;;;;;;;22.90;56.40;;;;;;5096578;28;20279;-68
2022/08/23 01:07:58;;;;;;;;;;;23.00;56.30;;;;;;5096307;28;19915;-69
2022/08/23 01:10:29;;;;;;;;;;;23.00;56.50;;;;;;5096513;28;20245;-69
2022/08/23 01:13:02;;;;;;;;;;;22.90;56.30;;;;;;5096457;28;19915;-67
2022/08/23 01:15:30;;;;;;;;;;;22.90;56.30;;;;;;5096387;28;19915;-71
2022/08/23 01:18:06;;;;;;;;;;;22.90;56.10;;;;;;5095832;28;19923;-70
2022/08/23 01:20:39;;;;;;;;;;;22.90;56.10;;;;;;5095978;28;19923;-72
2022/08/23 01:23:08;;;;;;;;;;;22.90;56.10;;;;;;5096296;28;19919;-70
2022/08/23 01:25:35;;;;;;;;;;;22.90;56.00;;;;;;5096039;28;19918;-67
2022/08/23 01:28:01;;;;;;;;;;;23.00;55.70;;;;;;5095929;28;20010;-67
2022/08/23 01:30:28;;;;;;;;;;;22.90;56.00;;;;;;5096036;28;19908;-65
2022/08/23 01:32:55;;;;;;;;;;;22.80;55.90;;;;;;5096054;28;19908;-68
2022/08/23 01:35:24;;;;;;;;;;;22.90;55.60;;;;;;5095869;28;19914;-68
2022/08/23 01:37:50;;;;;;;;;;;22.90;55.50;;;;;;5095722;28;19961;-64
2022/08/23 01:40:15;;;;;;;;;;;22.80;56.10;;;;;;5095503;28;19920;-72
2022/08/23 01:42:41;;;;;;;;;;;22.80;56.40;;;;;;5095813;28;20363;-72
2022/08/23 01:45:11;;;;;;;;;;;22.80;56.40;;;;;;5095436;28;20002;-68
2022/08/23 01:47:37;;;;;;;;;;;22.80;56.30;;;;;;5095673;28;19915;-68
2022/08/23 01:50:03;;;;;;;;;;;22.80;57.10;;;;;;5095529;28;19908;-72
2022/08/23 01:52:29;;;;;;;;;;;22.70;57.00;;;;;;5095802;28;19909;-71
2022/08/23 01:54:56;;;;;;;;;;;22.70;57.20;;;;;;5095472;28;19976;-67
2022/08/23 01:57:21;;;;;;;;;;;22.60;57.30;;;;;;5095589;28;19909;-70
2022/08/23 01:59:47;;;;;;;;;;;22.60;57.80;;;;;;5095505;28;19912;-71
2022/08/23 02:02:13;;;;;;;;;;;22.60;57.50;;;;;;5095549;28;19958;-69
2022/08/23 02:04:39;;;;;;;;;;;22.60;57.60;;;;;;5095507;28;19907;-71
2022/08/23 02:07:04;;;;;;;;;;;22.60;57.00;;;;;;5095452;28;20027;-69
2022/08/23 02:09:30;;;;;;;;;;;22.70;56.90;;;;;;5095156;28;20010;-69
2022/08/23 02:11:56;;;;;;;;;;;22.70;56.90;;;;;;5095337;28;19951;-71
2022/08/23 02:14:22;;;;;;;;;;;22.70;57.40;;;;;;5095271;28;19909;-72
2022/08/23 02:16:50;;;;;;;;;;;22.60;57.50;;;;;;5095075;28;19908;-70
2022/08/23 02:19:16;;;;;;;;;;;22.60;58.30;;;;;;5094892;28;19930;-72
2022/08/23 02:21:42;;;;;;;;;;;22.40;62.00;;;;;;5095361;28;19916;-73
2022/08/23 02:24:09;;;;;;;;;;;22.10;63.30;;;;;;5095583;28;19961;-74
2022/08/23 02:26:36;;;;;;;;;;;21.90;64.40;;;;;;5096006;28;19935;-72
2022/08/23 02:29:03;;;;;;;;;;;21.80;65.80;;;;;;5096587;28;19908;-73
2022/08/23 02:31:28;;;;;;;;;;;21.80;66.30;;;;;;5102282;28;19940;-71
2022/08/23 02:33:54;;;;;;;;;;;21.70;67.00;;;;;;5103040;28;19953;-72
2022/08/23 02:36:19;;;;;;;;;;;21.60;66.60;;;;;;5096951;28;19915;-68
2022/08/23 02:38:45;;;;;;;;;;;21.60;65.90;;;;;;5095381;28;20367;-71
2022/08/23 02:41:11;;;;;;;;;;;21.60;65.70;;;;;;5094391;28;19916;-71
2022/08/23 02:43:36;;;;;;;;;;;21.60;65.70;;;;;;5094640;28;19962;-74
2022/08/23 02:46:05;;;;;;;;;;;21.60;65.00;;;;;;5094374;28;20000;-73
2022/08/23 02:48:33;;;;;;;;;;;21.60;64.20;;;;;;5094564;28;20289;-71
2022/08/23 02:51:05;;;;;;;;;;;21.60;64.80;;;;;;5094220;28;19998;-70
2022/08/23 02:53:31;;;;;;;;;;;21.70;63.90;;;;;;5094453;28;20355;-71
2022/08/23 02:55:57;;;;;;;;;;;21.80;63.50;;;;;;5094457;28;19994;-70
2022/08/23 02:58:23;;;;;;;;;;;21.70;63.00;;;;;;5093568;28;19931;-66
2022/08/23 03:00:49;;;;;;;;;;;21.80;63.40;;;;;;5093970;28;20307;-73
2022/08/23 03:03:14;;;;;;;;;;;21.70;62.60;;;;;;5094378;28;19923;-67
2022/08/23 03:05:40;;;;;;;;;;;21.80;60.90;;;;;;5094279;28;19999;-68
2022/08/23 03:08:07;;;;;;;;;;;21.80;61.50;;;;;;5094373;28;20335;-71
2022/08/23 03:10:32;;;;;;;;;;;21.80;60.90;;;;;;5092890;28;19908;-72
2022/08/23 03:12:58;;;;;;;;;;;21.80;61.00;;;;;;5094516;28;19908;-71
2022/08/23 03:15:23;;;;;;;;;;;21.90;60.30;;;;;;5094120;28;19998;-70
2022/08/23 03:17:49;;;;;;;;;;;21.80;60.70;;;;;;5093822;28;20428;-72
2022/08/23 03:20:15;;;;;;;;;;;21.80;60.60;;;;;;5093712;28;19916;-66
2022/08/23 03:22:40;;;;;;;;;;;21.80;60.10;;;;;;5094231;28;20299;-69
2022/08/23 03:25:07;;;;;;;;;;;21.90;59.70;;;;;;5094375;28;19908;-71
2022/08/23 03:27:33;;;;;;;;;;;22.00;59.50;;;;;;5093920;28;20371;-72
2022/08/23 03:29:58;;;;;;;;;;;22.00;59.50;;;;;;5093828;28;20318;-72
2022/08/23 03:32:25;;;;;;;;;;;22.10;58.80;;;;;;5093897;28;19909;-71
2022/08/23 03:34:51;;;;;;;;;;;22.00;58.70;;;;;;5093850;28;19916;-70
2022/08/23 03:37:16;;;;;;;;;;;22.10;58.50;;;;;;5093493;28;20355;-70
2022/08/23 03:39:42;;;;;;;;;;;22.10;58.10;;;;;;5093833;28;19916;-71
2022/08/23 03:42:08;;;;;;;;;;;22.10;57.90;;;;;;5093733;28;20313;-69
2022/08/23 03:44:33;;;;;;;;;;;22.10;57.90;;;;;;5093799;28;19941;-72
2022/08/23 03:46:59;;;;;;;;;;;22.10;58.10;;;;;;5093801;28;19916;-73
2022/08/23 03:49:24;;;;;;;;;;;22.10;58.40;;;;;;5093680;28;19931;-70
2022/08/23 03:51:50;;;;;;;;;;;22.00;58.20;;;;;;5093645;28;19930;-67
2022/08/23 03:54:16;;;;;;;;;;;22.10;57.90;;;;;;5093338;28;19989;-71
2022/08/23 03:56:52;;;;;;;;;;;22.10;57.90;;;;;;5093751;28;19999;-71
2022/08/23 03:59:17;;;;;;;;;;;22.10;57.90;;;;;;5093441;28;19954;-71
2022/08/23 04:01:43;;;;;;;;;;;22.10;57.80;;;;;;5093814;28;19920;-70
2022/08/23 04:04:09;;;;;;;;;;;22.10;57.80;;;;;;5093304;28;19962;-71
2022/08/23 04:06:35;;;;;;;;;;;22.20;58.00;;;;;;5093769;28;20303;-66
2022/08/23 04:09:00;;;;;;;;;;;22.10;57.80;;;;;;5095618;28;19912;-69
2022/08/23 04:11:26;;;;;;;;;;;22.00;58.10;;;;;;5097574;28;20316;-72
2022/08/23 04:13:52;;;;;;;;;;;22.10;57.80;;;;;;5097294;28;19919;-72
2022/08/23 04:16:17;;;;;;;;;;;22.10;57.50;;;;;;5097347;28;19909;-72
2022/08/23 04:18:43;;;;;;;;;;;22.10;57.60;;;;;;5097160;28;19920;-71
2022/08/23 04:21:11;;;;;;;;;;;22.10;57.60;;;;;;5097064;28;19917;-69
2022/08/23 04:23:39;;;;;;;;;;;22.10;57.70;;;;;;5097516;28;19947;-68
2022/08/23 04:26:05;;;;;;;;;;;22.10;57.70;;;;;;5097390;28;20430;-68
2022/08/23 04:28:31;;;;;;;;;;;22.10;57.80;;;;;;5097513;28;19993;-71
2022/08/23 04:30:59;;;;;;;;;;;22.10;58.20;;;;;;5097019;28;19938;-70
2022/08/23 04:33:25;;;;;;;;;;;22.10;58.10;;;;;;5097282;28;20409;-70
2022/08/23 04:35:51;;;;;;;;;;;22.10;58.10;;;;;;5097260;28;20283;-72
2022/08/23 04:38:16;;;;;;;;;;;22.00;58.90;;;;;;5097354;28;19909;-68
2022/08/23 04:43:26;;;;;;;;;;;22.00;58.40;;;;;;5097202;28;19918;-71
2022/08/23 04:45:51;;;;;;;;;;;22.00;58.30;;;;;;5096947;28;20010;-71
2022/08/23 04:48:17;;;;;;;;;;;22.00;58.70;;;;;;5096915;28;20002;-70
2022/08/23 04:50:42;;;;;;;;;;;22.00;58.30;;;;;;5096758;28;19954;-71
2022/08/23 04:53:08;;;;;;;;;;;22.10;58.40;;;;;;5096930;28;19908;-70
2022/08/23 04:55:34;;;;;;;;;;;22.10;58.10;;;;;;5096797;28;20035;-72
2022/08/23 04:58:00;;;;;;;;;;;22.10;58.20;;;;;;5096776;28;19916;-68
2022/08/23 05:00:25;;;;;;;;;;;22.10;58.50;;;;;;5096486;28;19965;-68
2022/08/23 05:02:51;;;;;;;;;;;22.00;58.50;;;;;;5096977;28;20418;-71
2022/08/23 05:05:17;;;;;;;;;;;22.00;58.50;;;;;;5096560;28;19968;-70
2022/08/23 05:07:44;;;;;;;;;;;22.10;58.30;;;;;;5096646;28;20017;-71
2022/08/23 05:10:11;;;;;;;;;;;22.10;58.10;;;;;;5096466;28;19915;-70
2022/08/23 05:12:37;;;;;;;;;;;22.10;58.60;;;;;;5096493;28;20374;-70
2022/08/23 05:15:03;;;;;;;;;;;22.10;58.20;;;;;;5096358;28;19908;-70
2022/08/23 05:17:28;;;;;;;;;;;22.10;58.10;;;;;;5096179;28;20340;-70
2022/08/23 05:19:54;;;;;;;;;;;22.10;58.00;;;;;;5095203;28;19963;-73
2022/08/23 05:22:19;;;;;;;;;;;22.20;58.30;;;;;;5096379;28;19909;-71
2022/08/23 05:24:45;;;;;;;;;;;22.20;57.80;;;;;;5096320;28;19919;-66
2022/08/23 05:27:10;;;;;;;;;;;22.10;58.00;;;;;;5096869;28;19915;-70
2022/08/23 05:29:36;;;;;;;;;;;22.20;57.80;;;;;;5096007;28;20387;-71
2022/08/23 05:32:02;;;;;;;;;;;22.20;58.00;;;;;;5096095;28;19908;-72
2022/08/23 05:34:27;;;;;;;;;;;22.20;57.80;;;;;;5096003;28;20386;-73
2022/08/23 05:36:53;;;;;;;;;;;22.20;58.00;;;;;;5095994;28;19908;-70
2022/08/23 05:39:18;;;;;;;;;;;22.30;58.00;;;;;;5095789;28;20358;-71
2022/08/23 05:41:44;;;;;;;;;;;22.20;57.90;;;;;;5095765;28;19908;-70
2022/08/23 05:44:10;;;;;;;;;;;22.30;57.20;;;;;;5095522;28;19912;-67
2022/08/23 05:46:36;;;;;;;;;;;22.30;57.60;;;;;;5095633;28;20020;-71
2022/08/23 05:49:01;;;;;;;;;;;22.30;56.80;;;;;;5096003;28;20360;-68
2022/08/23 05:51:31;;;;;;;;;;;22.30;57.00;;;;;;5095829;28;19909;-69
2022/08/23 05:53:58;;;;;;;;;;;22.40;57.40;;;;;;5095775;28;19908;-67
2022/08/23 05:56:31;;;;;;;;;;;22.40;57.30;;;;;;5095441;28;20359;-65
2022/08/23 05:58:59;;;;;;;;;;;22.20;57.70;;;;;;5095593;28;19908;-63
2022/08/23 06:01:25;;;;;;;;;;;22.30;57.90;;;;;;5095297;28;19923;-64
2022/08/23 06:03:51;;;;;;;;;;;22.30;58.00;;;;;;5095541;28;19914;-64
2022/08/23 06:06:17;;;;;;;;;;;22.40;57.70;;;;;;5095317;28;19951;-66
2022/08/23 06:08:47;;;;;;;;;;;22.40;57.90;;;;;;5095441;28;19908;-64
2022/08/23 06:11:17;;;;;;;;;;;22.40;58.00;;;;;;5095028;28;19912;-65
2022/08/23 06:13:44;;;;;;;;;;;22.40;58.00;;;;;;5095126;28;20484;-64
2022/08/23 06:16:11;;;;;;;;;;;22.30;58.70;;;;;;5095214;28;19998;-64
2022/08/23 06:18:36;;;;;;;;;;;22.20;58.40;;;;;;5094796;28;19924;-64
2022/08/23 06:21:03;;;;;;;;;;;22.30;58.40;;;;;;5094910;28;20073;-64
2022/08/23 06:23:29;;;;;;;;;;;22.30;58.60;;;;;;5095274;28;20363;-65
2022/08/23 06:25:55;;;;;;;;;;;22.30;58.40;;;;;;5095165;28;20253;-64
2022/08/23 06:28:21;;;;;;;;;;;22.40;58.40;;;;;;5094929;28;19908;-65
2022/08/23 06:30:47;;;;;;;;;;;22.30;58.40;;;;;;5094920;28;20437;-64
2022/08/23 06:33:13;;;;;;;;;;;22.30;58.30;;;;;;5095004;28;19943;-64
2022/08/23 06:35:38;;;;;;;;;;;22.30;58.20;;;;;;5095032;28;20398;-64
2022/08/23 06:38:04;;;;;;;;;;;22.30;58.20;;;;;;5094639;28;19991;-65
2022/08/23 06:40:29;;;;;;;;;;;22.40;58.40;;;;;;5094495;28;19962;-63
2022/08/23 06:42:56;;;;;;;;;;;22.40;58.70;;;;;;5094894;28;19914;-64
2022/08/23 06:45:22;;;;;;;;;;;22.50;58.60;;;;;;5094682;28;20264;-65
2022/08/23 06:47:47;;;;;;;;;;;22.50;58.40;;;;;;5094980;28;19914;-66
2022/08/23 06:50:13;;;;;;;;;;;22.60;57.80;;;;;;5094633;28;20440;-64
2022/08/23 06:52:38;;;;;;;;;;;22.70;57.60;;;;;;5094652;28;19908;-67
2022/08/23 06:55:04;;;;;;;;;;;22.80;57.40;;;;;;5094527;28;19939;-65
2022/08/23 06:57:31;;;;;;;;;;;22.90;57.30;;;;;;5094250;28;19908;-65
2022/08/23 06:59:56;;;;;;;;;;;22.90;57.50;;;;;;5094361;28;19916;-65
2022/08/23 07:02:22;;;;;;;;;;;23.00;57.40;;;;;;5094433;28;19915;-64
2022/08/23 07:04:52;;;;;;;;;;;23.00;57.40;;;;;;5094234;28;19931;-64
2022/08/23 07:07:18;;;;;;;;;;;23.00;57.50;;;;;;5094102;28;19908;-65
2022/08/23 07:09:44;;;;;;;;;;;23.00;57.40;;;;;;5094092;28;19916;-66
2022/08/23 07:12:10;;;;;;;;;;;23.10;57.60;;;;;;5094656;28;19908;-65
2022/08/23 07:14:36;;;;;;;;;;;23.10;57.20;;;;;;5094076;28;19997;-65
2022/08/23 07:17:02;;;;;;;;;;;23.20;57.50;;;;;;5093993;28;20370;-65
2022/08/23 07:19:32;;;;;;;;;;;23.20;56.80;;;;;;5094061;28;19912;-64
2022/08/23 07:21:59;;;;;;;;;;;23.20;57.30;;;;;;5093958;28;19915;-65
2022/08/23 07:24:24;;;;;;;;;;;23.30;57.00;;;;;;5093873;28;19930;-64
2022/08/23 07:26:53;;;;;;;;;;;23.30;56.80;;;;;;5094244;28;19909;-64
2022/08/23 07:29:20;;;;;;;;;;;23.40;57.00;;;;;;5092781;28;19953;-65
2022/08/23 07:31:55;;;;;;;;;;;23.30;57.20;;;;;;5094107;28;20560;-64
2022/08/23 07:34:21;;;;;;;;;;;23.20;57.70;;;;;;5094161;28;19908;-66
2022/08/23 07:36:47;;;;;;;;;;;23.20;58.00;;;;;;5094167;28;20271;-64
2022/08/23 07:39:13;;;;;;;;;;;23.30;57.80;;;;;;5093774;28;20003;-70
2022/08/23 07:41:40;;;;;;;;;;;23.30;58.30;;;;;;5093586;28;19923;-72
2022/08/23 07:44:07;;;;;;;;;;;23.40;57.90;;;;;;5093740;28;19912;-70
2022/08/23 07:46:33;;;;;;;;;;;23.40;58.10;;;;;;5094058;28;19931;-65
2022/08/23 07:48:59;;;;;;;;;;;23.50;57.70;;;;;;5094154;28;20347;-65
2022/08/23 07:51:26;;;;;;;;;;;23.30;58.40;;;;;;5093933;28;19908;-65
2022/08/23 07:53:52;;;;;;;;;;;23.20;58.80;;;;;;5093970;28;19908;-65
2022/08/23 07:56:19;;;;;;;;;;;23.20;58.50;;;;;;5093957;28;19916;-66
2022/08/23 07:58:44;;;;;;;;;;;23.20;58.70;;;;;;5093456;28;19915;-66
2022/08/23 08:01:15;;;;;;;;;;;23.20;58.90;;;;;;5092575;28;19925;-64
2022/08/23 08:03:41;;;;;;;;;;;23.20;58.90;;;;;;5093892;28;20320;-65
2022/08/23 08:06:08;;;;;;;;;;;23.20;58.60;;;;;;5093731;28;19908;-64
2022/08/23 08:08:33;;;;;;;;;;;23.30;58.50;;;;;;5093924;28;20308;-64
2022/08/23 08:10:59;;;;;;;;;;;23.30;58.80;;;;;;5093808;28;19955;-65
2022/08/23 08:13:24;;;;;;;;;;;23.40;58.70;;;;;;5093978;28;20356;-65
2022/08/23 08:15:50;;;;;;;;;;;23.30;58.40;;;;;;5093861;28;20378;-65
2022/08/23 08:18:16;;;;;;;;;;;23.30;58.60;;;;;;5093837;28;19961;-65
2022/08/23 08:20:44;;;;;;;;;;;23.40;58.50;;;;;;5092408;28;19947;-67
2022/08/23 08:23:10;;;;;;;;;;;23.50;58.10;;;;;;5094042;28;19916;-65
2022/08/23 08:25:35;;;;;;;;;;;23.60;58.00;;;;;;5094409;28;19912;-66
2022/08/23 08:28:01;;;;;;;;;;;23.70;57.50;;;;;;5106624;28;19908;-66
2022/08/23 08:30:26;;;;;;;;;;;23.70;57.60;;;;;;5108233;28;19908;-68
2022/08/23 08:32:52;;;;;;;;;;;23.60;57.80;;;;;;5109637;28;19908;-65
2022/08/23 08:35:18;;;;;;;;;;;23.70;57.60;;;;;;5104551;28;20060;-66
2022/08/23 08:37:43;;;;;;;;;;;23.80;57.70;;;;;;5106087;28;20003;-65
2022/08/23 08:40:09;;;;;;;;;;;23.80;57.50;;;;;;5101567;28;19916;-64
2022/08/23 08:42:47;;;;;;;;;;;23.80;57.90;;;;;;5093614;28;19921;-64
2022/08/23 08:45:21;;;;;;;;;;;23.90;57.40;;;;;;5093499;28;19953;-66
2022/08/23 08:47:48;;;;;;;;;;;23.90;57.90;;;;;;5093473;28;19908;-66
2022/08/23 08:50:25;;;;;;;;;;;24.00;57.70;;;;;;5093328;28;19908;-66
2022/08/23 08:53:00;;;;;;;;;;;24.10;57.90;;;;;;5093217;28;19946;-65
2022/08/23 08:55:28;;;;;;;;;;;24.30;57.50;;;;;;5093969;28;19935;-66
2022/08/23 08:57:54;;;;;;;;;;;24.50;56.70;;;;;;5096738;28;19984;-66
2022/08/23 09:00:20;;;;;;;;;;;24.50;57.10;;;;;;5096618;28;19920;-66
2022/08/23 09:02:46;;;;;;;;;;;24.40;57.10;;;;;;5096462;28;19914;-65
2022/08/23 09:05:17;;;;;;;;;;;24.50;57.00;;;;;;5096822;28;19977;-66
2022/08/23 09:07:48;;;;;;;;;;;24.60;56.70;;;;;;5096602;28;19908;-66
2022/08/23 09:10:32;;;;;;;;;;;24.60;57.00;;;;;;5096184;28;19916;-67
2022/08/23 09:13:04;;;;;;;;;;;24.60;57.40;;;;;;5096624;28;19915;-64
2022/08/23 09:15:29;;;;;;;;;;;24.60;57.10;;;;;;5096348;28;20380;-66
2022/08/23 09:17:56;;;;;;;;;;;24.50;57.10;;;;;;5095943;28;19920;-65
2022/08/23 09:20:23;;;;;;;;;;;24.50;56.70;;;;;;5095786;28;19920;-67
2022/08/23 09:22:50;;;;;;;;;;;24.60;56.60;;;;;;5096221;28;20002;-66
2022/08/23 09:25:16;;;;;;;;;;;24.80;57.00;;;;;;5096298;28;19908;-65
2022/08/23 09:27:43;;;;;;;;;;;24.90;57.50;;;;;;5096320;28;19908;-70
2022/08/23 09:30:11;;;;;;;;;;;24.90;57.10;;;;;;5096069;28;19915;-69
2022/08/23 09:32:38;;;;;;;;;;;24.80;57.20;;;;;;5096246;28;19936;-70
2022/08/23 09:35:12;;;;;;;;;;;24.90;56.70;;;;;;5096218;28;19916;-71
2022/08/23 09:37:53;;;;;;;;;;;24.90;55.70;;;;;;5095729;28;19995;-68
2022/08/23 09:40:24;;;;;;;;;;;25.00;55.50;;;;;;5095731;28;20065;-70
2022/08/23 09:43:02;;;;;;;;;;;25.10;55.80;;;;;;5096106;28;19931;-70
2022/08/23 09:45:29;;;;;;;;;;;25.00;55.80;;;;;;5095861;28;19908;-72
2022/08/23 09:47:55;;;;;;;;;;;25.00;55.50;;;;;;5095413;28;20320;-68
2022/08/23 09:50:29;;;;;;;;;;;25.00;55.90;;;;;;5095681;28;19990;-67
2022/08/23 09:52:58;;;;;;;;;;;25.00;55.50;;;;;;5095699;28;19931;-71
2022/08/23 09:55:30;;;;;;;;;;;25.10;55.80;;;;;;5095569;28;19908;-71
2022/08/23 09:57:57;;;;;;;;;;;25.00;55.20;;;;;;5095280;28;20382;-66
2022/08/23 10:00:22;;;;;;;;;;;25.00;54.80;;;;;;5095157;28;20421;-66
2022/08/23 10:02:49;;;;;;;;;;;24.90;55.30;;;;;;5095608;28;19912;-66
2022/08/23 10:05:14;;;;;;;;;;;24.90;55.20;;;;;;5095149;28;19908;-65
2022/08/23 10:07:41;;;;;;;;;;;25.00;55.40;;;;;;5094690;28;19914;-65
2022/08/23 10:10:22;;;;;;;;;;;24.90;56.00;;;;;;5093753;28;19908;-64
2022/08/23 10:12:48;;;;;;;;;;;25.00;55.20;;;;;;5095386;28;19909;-66
2022/08/23 10:15:14;;;;;;;;;;;25.10;55.10;;;;;;5095231;28;19915;-65
2022/08/23 10:17:44;;;;;;;;;;;25.20;54.90;;;;;;5095029;28;19927;-65
2022/08/23 10:20:27;;;;;;;;;;;25.30;54.00;;;;;;5094797;28;20382;-66
2022/08/23 10:22:53;;;;;;;;;;;25.40;53.90;;;;;;5094980;28;19908;-64
2022/08/23 10:25:29;;;;;;;;;;;25.40;53.60;;;;;;5095058;28;20014;-66
2022/08/23 10:30:49;;;;;;;;;;;25.60;55.00;;;;;;5094968;28;19918;-64
2022/08/23 10:33:18;;;;;;;;;;;25.80;53.10;;;;;;5094728;28;19908;-65
2022/08/23 10:35:52;;;;;;;;;;;25.80;52.50;;;;;;5094939;28;19995;-66
2022/08/23 10:38:36;;;;;;;;;;;25.80;53.60;;;;;;5095144;28;19911;-69
2022/08/23 10:41:08;;;;;;;;;;;25.90;53.60;;;;;;5094589;28;19941;-67
2022/08/23 10:43:33;;;;;;;;;;;25.90;53.20;;;;;;5094802;28;20263;-67
2022/08/23 10:46:01;;;;;;;;;;;25.90;52.80;;;;;;5094792;28;20419;-65
2022/08/23 10:48:29;;;;;;;;;;;26.00;52.80;;;;;;5094733;28;19934;-65
2022/08/23 10:51:10;;;;;;;;;;;26.10;52.20;;;;;;5094479;28;19909;-67
2022/08/23 10:53:47;;;;;;;;;;;26.10;52.10;;;;;;5094525;28;19915;-66
2022/08/23 10:56:17;;;;;;;;;;;26.00;51.60;;;;;;5094588;28;19961;-69
2022/08/23 10:58:46;;;;;;;;;;;26.10;52.30;;;;;;5094175;28;19936;-69
2022/08/23 11:01:13;;;;;;;;;;;26.20;51.50;;;;;;5094661;28;20419;-67
2022/08/23 11:03:43;;;;;;;;;;;26.10;51.60;;;;;;5094343;28;19998;-70
2022/08/23 11:06:23;;;;;;;;;;;26.20;51.70;;;;;;5094471;28;20393;-70
2022/08/23 11:08:56;;;;;;;;;;;26.20;51.10;;;;;;5094128;28;20290;-69
2022/08/23 11:11:51;;;;;;;;;;;26.50;51.00;;;;;;5094254;28;19908;-71
2022/08/23 11:14:36;;;;;;;;;;;26.80;51.50;;;;;;5085018;28;19966;-71
2022/08/23 11:17:10;;;;;;;;;;;27.00;49.80;;;;;;5094143;28;20375;-71
2022/08/23 11:19:53;;;;;;;;;;;26.90;49.90;;;;;;5093549;28;20371;-67
2022/08/23 11:22:18;;;;;;;;;;;26.70;49.20;;;;;;5094127;28;19912;-73
2022/08/23 11:25:05;;;;;;;;;;;26.70;50.20;;;;;;5092711;28;19908;-68
2022/08/23 11:27:31;;;;;;;;;;;26.90;49.80;;;;;;5094129;28;19908;-67
2022/08/23 11:29:57;;;;;;;;;;;26.90;48.80;;;;;;5094002;28;19919;-69
2022/08/23 11:32:39;;;;;;;;;;;26.90;48.90;;;;;;5093920;28;19908;-71
2022/08/23 11:35:07;;;;;;;;;;;26.80;48.40;;;;;;5093967;28;19948;-70
2022/08/23 11:37:50;;;;;;;;;;;26.70;49.40;;;;;;5094032;28;19908;-71
2022/08/23 11:40:35;;;;;;;;;;;26.50;48.90;;;;;;5093696;28;19948;-69
2022/08/23 11:43:04;;;;;;;;;;;26.40;49.50;;;;;;5094454;28;19994;-68
2022/08/23 11:45:36;;;;;;;;;;;26.20;49.90;;;;;;5094811;28;19908;-69
2022/08/23 11:48:07;;;;;;;;;;;26.00;49.40;;;;;;5095044;28;19915;-66
2022/08/23 11:50:33;;;;;;;;;;;26.00;48.90;;;;;;5094917;28;20012;-67
2022/08/23 11:53:07;;;;;;;;;;;26.00;49.50;;;;;;5094452;28;19929;-70
2022/08/23 11:55:54;;;;;;;;;;;26.20;49.10;;;;;;5093604;28;20367;-68
2022/08/23 11:58:26;;;;;;;;;;;26.50;48.00;;;;;;5093937;28;19909;-71
2022/08/23 12:00:54;;;;;;;;;;;26.60;48.90;;;;;;5093774;28;19916;-71
2022/08/23 12:03:33;;;;;;;;;;;26.70;48.00;;;;;;5093386;28;20371;-70
2022/08/23 12:06:04;;;;;;;;;;;26.80;47.90;;;;;;5093877;28;19908;-72
2022/08/23 12:08:31;;;;;;;;;;;26.70;47.90;;;;;;5093501;28;19908;-71
2022/08/23 12:10:59;;;;;;;;;;;26.80;48.10;;;;;;5093439;28;19909;-69
2022/08/23 12:13:28;;;;;;;;;;;26.80;47.60;;;;;;5093923;28;19986;-72
2022/08/23 12:16:03;;;;;;;;;;;26.70;47.10;;;;;;5093426;28;19908;-70
2022/08/23 12:18:29;;;;;;;;;;;26.80;47.70;;;;;;5093451;28;19920;-72
2022/08/23 12:20:59;;;;;;;;;;;27.10;47.30;;;;;;5092065;28;19920;-71
2022/08/23 12:23:25;;;;;;;;;;;27.30;46.70;;;;;;5093618;28;19919;-72
2022/08/23 12:26:08;;;;;;;;;;;27.20;46.30;;;;;;5093592;28;20282;-66
2022/08/23 12:28:35;;;;;;;;;;;27.10;46.80;;;;;;5093512;28;19909;-73
2022/08/23 12:31:04;;;;;;;;;;;27.00;47.40;;;;;;5096822;28;20455;-67
2022/08/23 12:33:42;;;;;;;;;;;26.90;46.20;;;;;;5097750;28;19961;-70
2022/08/23 12:36:13;;;;;;;;;;;26.80;46.90;;;;;;5097270;28;19908;-69
2022/08/23 12:38:39;;;;;;;;;;;26.70;47.60;;;;;;5097009;28;19915;-72
2022/08/23 12:41:30;;;;;;;;;;;26.70;47.80;;;;;;5097335;28;20345;-72
2022/08/23 12:44:05;;;;;;;;;;;26.70;47.60;;;;;;5094986;28;19912;-68
2022/08/23 12:46:33;;;;;;;;;;;26.90;47.80;;;;;;5096948;28;19908;-71
2022/08/23 12:48:58;;;;;;;;;;;27.00;46.90;;;;;;5096860;28;19908;-72
2022/08/23 12:51:24;;;;;;;;;;;27.10;47.50;;;;;;5097048;28;20415;-70
2022/08/23 12:53:51;;;;;;;;;;;27.30;46.70;;;;;;5097136;28;19908;-69
2022/08/23 12:56:21;;;;;;;;;;;27.40;46.30;;;;;;5097121;28;19947;-67
2022/08/23 12:58:50;;;;;;;;;;;27.60;46.50;;;;;;5096798;28;19943;-70
2022/08/23 13:01:21;;;;;;;;;;;27.60;46.60;;;;;;5097499;28;19919;-69
2022/08/23 13:03:49;;;;;;;;;;;27.60;46.60;;;;;;5096676;28;19912;-67
2022/08/23 13:06:19;;;;;;;;;;;27.50;46.30;;;;;;5097065;28;19915;-65
2022/08/23 13:08:53;;;;;;;;;;;27.30;47.10;;;;;;5097416;28;19943;-71
2022/08/23 13:11:20;;;;;;;;;;;27.30;46.90;;;;;;5109041;28;19987;-69
2022/08/23 13:13:46;;;;;;;;;;;27.40;47.40;;;;;;5113631;28;19919;-67
2022/08/23 13:16:23;;;;;;;;;;;27.40;47.40;;;;;;5113439;28;19908;-74
2022/08/23 13:18:48;;;;;;;;;;;27.10;47.20;;;;;;5106387;28;19962;-68
2022/08/23 13:21:29;;;;;;;;;;;26.90;48.20;;;;;;5108866;28;19916;-69
2022/08/23 13:23:57;;;;;;;;;;;26.80;48.60;;;;;;5104879;28;19954;-68
2022/08/23 13:26:23;;;;;;;;;;;26.70;49.20;;;;;;5097680;28;19954;-71
2022/08/23 13:29:06;;;;;;;;;;;26.70;49.30;;;;;;5095138;28;19915;-68
2022/08/23 13:31:51;;;;;;;;;;;26.70;49.60;;;;;;5096257;28;20311;-70
2022/08/23 13:34:52;;;;;;;;;;;26.70;49.50;;;;;;5097216;28;19908;-67
2022/08/23 13:37:17;;;;;;;;;;;26.60;49.60;;;;;;5073636;28;19955;-67
2022/08/23 13:39:43;;;;;;;;;;;26.70;48.70;;;;;;5096102;28;19951;-69
2022/08/23 13:42:10;;;;;;;;;;;26.90;49.30;;;;;;5095115;28;19930;-66
2022/08/23 13:44:37;;;;;;;;;;;27.20;49.00;;;;;;5095911;28;19908;-68
2022/08/23 13:47:03;;;;;;;;;;;27.50;48.00;;;;;;5095760;28;20352;-66
2022/08/23 13:49:35;;;;;;;;;;;27.70;47.80;;;;;;5095682;28;20003;-65
2022/08/23 13:52:00;;;;;;;;;;;27.90;47.30;;;;;;5094216;28;19919;-70
2022/08/23 13:54:27;;;;;;;;;;;28.20;46.30;;;;;;5095586;28;19912;-68
2022/08/23 13:57:00;;;;;;;;;;;28.30;47.10;;;;;;5095599;28;20256;-69
2022/08/23 13:59:28;;;;;;;;;;;28.20;46.70;;;;;;5095215;28;19912;-66
2022/08/23 14:01:55;;;;;;;;;;;28.30;46.30;;;;;;5095281;28;19916;-66
2022/08/23 14:04:20;;;;;;;;;;;28.20;45.70;;;;;;5095512;28;19946;-69
2022/08/23 14:06:47;;;;;;;;;;;28.10;46.00;;;;;;5095450;28;19912;-70
2022/08/23 14:09:13;;;;;;;;;;;28.20;46.20;;;;;;5094979;28;19908;-70
2022/08/23 14:11:39;;;;;;;;;;;28.20;47.10;;;;;;5095338;28;20003;-68
2022/08/23 14:14:04;;;;;;;;;;;28.20;47.40;;;;;;5095070;28;19915;-66
2022/08/23 14:16:33;;;;;;;;;;;28.20;47.30;;;;;;5095236;28;19912;-70
2022/08/23 14:18:59;;;;;;;;;;;27.80;46.50;;;;;;5094650;28;20402;-69
2022/08/23 14:21:25;;;;;;;;;;;27.80;46.90;;;;;;5094991;28;19961;-66
2022/08/23 14:23:51;;;;;;;;;;;27.80;46.80;;;;;;5095025;28;19944;-65
2022/08/23 14:26:17;;;;;;;;;;;27.70;46.00;;;;;;5095057;28;19912;-67
2022/08/23 14:28:43;;;;;;;;;;;27.60;47.40;;;;;;5094771;28;19915;-66
2022/08/23 14:31:09;;;;;;;;;;;27.60;47.10;;;;;;5094579;28;19916;-66
2022/08/23 14:33:35;;;;;;;;;;;27.50;47.20;;;;;;5094753;28;19912;-67